首页
METAR-TAF:

METAR-TAF

机场 :

館山, 日本

纬度: 34-59N, 经度: 139-50E, 海拔: 3米

当前天气观测

该预报发布于14小时和11分钟前的00:12 UTC
风速5节,风向北转西北,在西转西北北转东北之间变化
温度 26°C
湿度 84%
气压 1015 hPa
能见度10公里或以上
散云层高于1000英尺
多云层高于10000英尺
多云层高于23000英尺

METAR: RJTE 240012Z 34005KT 290V020 9999 SCT010 BKN100 BKN230 26/23 Q1015 RMK 4ST010 6AC100 A2998

时间: 23:23 (14:23 UTC)


TAF: 丢失

超过4000个机场的气象观测和天气预报(METAR&TAF报告)。

可查询的气象台以黄色和红色小点在地图上表示。

将鼠标移到小点上方,可查看气象台名称。

然后点击查看天气观测和预报。

如需切换地图:点击带黑十字的绿色按钮放大地图;点击带横线的绿色按钮缩小地图;或者点击绿色箭头查看邻近地区的地图。


METAR-TAF: